sensor_id;sensor_type;location;lat;lon;timestamp;temperature;humidity
11152;DHT22;5630;49.342;10.802;2023-03-14T00:00:13;8.70;99.90
11152;DHT22;5630;49.342;10.802;2023-03-14T00:02:39;8.80;99.90
11152;DHT22;5630;49.342;10.802;2023-03-14T00:05:05;8.70;99.90
11152;DHT22;5630;49.342;10.802;2023-03-14T00:07:36;8.70;99.90
11152;DHT22;5630;49.342;10.802;2023-03-14T00:10:08;8.70;99.90
11152;DHT22;5630;49.342;10.802;2023-03-14T00:12:34;8.70;99.90
11152;DHT22;5630;49.342;10.802;2023-03-14T00:15:00;8.70;99.90
11152;DHT22;5630;49.342;10.802;2023-03-14T00:17:28;8.70;99.90
11152;DHT22;5630;49.342;10.802;2023-03-14T00:19:54;8.70;99.90
11152;DHT22;5630;49.342;10.802;2023-03-14T00:22:20;8.70;99.90
11152;DHT22;5630;49.342;10.802;2023-03-14T00:24:46;8.70;99.90
11152;DHT22;5630;49.342;10.802;2023-03-14T00:27:12;8.70;99.90
11152;DHT22;5630;49.342;10.802;2023-03-14T00:29:37;8.70;99.90
11152;DHT22;5630;49.342;10.802;2023-03-14T00:32:03;8.70;99.90
11152;DHT22;5630;49.342;10.802;2023-03-14T00:34:29;8.70;99.90
11152;DHT22;5630;49.342;10.802;2023-03-14T00:36:55;8.70;99.90
11152;DHT22;5630;49.342;10.802;2023-03-14T00:39:21;8.70;99.90
11152;DHT22;5630;49.342;10.802;2023-03-14T00:41:46;8.70;99.90
11152;DHT22;5630;49.342;10.802;2023-03-14T00:44:12;8.70;99.90
11152;DHT22;5630;49.342;10.802;2023-03-14T00:46:38;8.70;99.90
11152;DHT22;5630;49.342;10.802;2023-03-14T00:49:04;8.70;99.90
11152;DHT22;5630;49.342;10.802;2023-03-14T00:51:30;8.70;99.90
11152;DHT22;5630;49.342;10.802;2023-03-14T00:53:55;8.70;99.90
11152;DHT22;5630;49.342;10.802;2023-03-14T00:56:21;8.70;99.90
11152;DHT22;5630;49.342;10.802;2023-03-14T00:58:46;8.80;99.90
11152;DHT22;5630;49.342;10.802;2023-03-14T01:01:17;8.70;99.90
11152;DHT22;5630;49.342;10.802;2023-03-14T01:03:44;8.70;99.90
11152;DHT22;5630;49.342;10.802;2023-03-14T01:06:18;8.70;99.90
11152;DHT22;5630;49.342;10.802;2023-03-14T01:08:45;8.70;99.90
11152;DHT22;5630;49.342;10.802;2023-03-14T01:11:17;8.70;99.90
11152;DHT22;5630;49.342;10.802;2023-03-14T01:13:43;8.70;99.90
11152;DHT22;5630;49.342;10.802;2023-03-14T01:16:10;8.70;99.90
11152;DHT22;5630;49.342;10.802;2023-03-14T01:18:37;8.70;99.90
11152;DHT22;5630;49.342;10.802;2023-03-14T01:21:09;8.70;99.90
11152;DHT22;5630;49.342;10.802;2023-03-14T01:23:35;8.70;99.90
11152;DHT22;5630;49.342;10.802;2023-03-14T01:26:00;8.70;99.90
11152;DHT22;5630;49.342;10.802;2023-03-14T01:28:26;8.70;99.90
11152;DHT22;5630;49.342;10.802;2023-03-14T01:30:51;8.70;99.90
11152;DHT22;5630;49.342;10.802;2023-03-14T01:33:17;8.70;99.90
11152;DHT22;5630;49.342;10.802;2023-03-14T01:35:42;8.70;99.90
11152;DHT22;5630;49.342;10.802;2023-03-14T01:38:08;8.70;99.90
11152;DHT22;5630;49.342;10.802;2023-03-14T01:40:34;8.70;99.90
11152;DHT22;5630;49.342;10.802;2023-03-14T01:43:12;8.70;99.90
11152;DHT22;5630;49.342;10.802;2023-03-14T01:49:11;8.70;99.90
11152;DHT22;5630;49.342;10.802;2023-03-14T01:51:51;8.70;99.90
11152;DHT22;5630;49.342;10.802;2023-03-14T01:59:31;8.70;99.90
11152;DHT22;5630;49.342;10.802;2023-03-14T02:01:58;8.70;99.90
11152;DHT22;5630;49.342;10.802;2023-03-14T02:04:28;8.70;99.90
11152;DHT22;5630;49.342;10.802;2023-03-14T02:07:03;8.70;99.90
11152;DHT22;5630;49.342;10.802;2023-03-14T02:09:31;8.70;99.90
11152;DHT22;5630;49.342;10.802;2023-03-14T02:11:57;8.80;99.90
11152;DHT22;5630;49.342;10.802;2023-03-14T02:14:34;8.80;99.90
11152;DHT22;5630;49.342;10.802;2023-03-14T02:17:01;8.80;99.90
11152;DHT22;5630;49.342;10.802;2023-03-14T02:22:13;8.80;99.90
11152;DHT22;5630;49.342;10.802;2023-03-14T02:27:10;8.80;99.90
11152;DHT22;5630;49.342;10.802;2023-03-14T02:29:39;8.80;99.90
11152;DHT22;5630;49.342;10.802;2023-03-14T02:32:07;8.80;99.90
11152;DHT22;5630;49.342;10.802;2023-03-14T02:34:33;8.80;99.90
11152;DHT22;5630;49.342;10.802;2023-03-14T02:37:00;8.70;99.90
11152;DHT22;5630;49.342;10.802;2023-03-14T02:39:36;8.80;99.90
11152;DHT22;5630;49.342;10.802;2023-03-14T02:42:03;8.70;99.90
11152;DHT22;5630;49.342;10.802;2023-03-14T02:44:29;8.70;99.90
11152;DHT22;5630;49.342;10.802;2023-03-14T02:46:54;8.70;99.90
11152;DHT22;5630;49.342;10.802;2023-03-14T02:49:20;8.70;99.90
11152;DHT22;5630;49.342;10.802;2023-03-14T02:51:46;8.60;99.90
11152;DHT22;5630;49.342;10.802;2023-03-14T02:54:13;8.70;99.90
11152;DHT22;5630;49.342;10.802;2023-03-14T02:56:39;8.70;99.90
11152;DHT22;5630;49.342;10.802;2023-03-14T02:59:05;8.70;99.90
11152;DHT22;5630;49.342;10.802;2023-03-14T03:01:31;8.60;99.90
11152;DHT22;5630;49.342;10.802;2023-03-14T03:03:56;8.70;99.90
11152;DHT22;5630;49.342;10.802;2023-03-14T03:06:22;8.70;99.90
11152;DHT22;5630;49.342;10.802;2023-03-14T03:08:48;8.60;99.90
11152;DHT22;5630;49.342;10.802;2023-03-14T03:11:13;8.60;99.90
11152;DHT22;5630;49.342;10.802;2023-03-14T03:13:39;8.60;99.90
11152;DHT22;5630;49.342;10.802;2023-03-14T03:16:05;8.60;99.90
11152;DHT22;5630;49.342;10.802;2023-03-14T03:18:30;8.50;99.90
11152;DHT22;5630;49.342;10.802;2023-03-14T03:21:00;8.50;99.90
11152;DHT22;5630;49.342;10.802;2023-03-14T03:23:26;8.50;99.90
11152;DHT22;5630;49.342;10.802;2023-03-14T03:25:52;8.50;99.90
11152;DHT22;5630;49.342;10.802;2023-03-14T03:28:19;8.50;99.90
11152;DHT22;5630;49.342;10.802;2023-03-14T03:30:45;8.60;99.90
11152;DHT22;5630;49.342;10.802;2023-03-14T03:33:11;8.50;99.90
11152;DHT22;5630;49.342;10.802;2023-03-14T03:35:49;8.50;99.90
11152;DHT22;5630;49.342;10.802;2023-03-14T03:38:15;8.50;99.90
11152;DHT22;5630;49.342;10.802;2023-03-14T03:40:41;8.50;99.90
11152;DHT22;5630;49.342;10.802;2023-03-14T03:43:07;8.50;99.90
11152;DHT22;5630;49.342;10.802;2023-03-14T03:45:32;8.40;99.90
11152;DHT22;5630;49.342;10.802;2023-03-14T03:47:58;8.50;99.90
11152;DHT22;5630;49.342;10.802;2023-03-14T03:50:23;8.50;99.90
11152;DHT22;5630;49.342;10.802;2023-03-14T03:52:49;8.40;99.90
11152;DHT22;5630;49.342;10.802;2023-03-14T03:55:14;8.40;99.90
11152;DHT22;5630;49.342;10.802;2023-03-14T03:57:40;8.40;99.90
11152;DHT22;5630;49.342;10.802;2023-03-14T04:00:06;8.40;99.90
11152;DHT22;5630;49.342;10.802;2023-03-14T04:02:34;8.30;99.90
11152;DHT22;5630;49.342;10.802;2023-03-14T04:05:00;8.30;99.90
11152;DHT22;5630;49.342;10.802;2023-03-14T04:07:25;8.30;99.90
11152;DHT22;5630;49.342;10.802;2023-03-14T04:09:51;8.30;99.90
11152;DHT22;5630;49.342;10.802;2023-03-14T04:12:16;8.30;99.90
11152;DHT22;5630;49.342;10.802;2023-03-14T04:14:42;8.30;99.90
11152;DHT22;5630;49.342;10.802;2023-03-14T04:17:08;8.30;99.90
11152;DHT22;5630;49.342;10.802;2023-03-14T04:19:33;8.30;99.90
11152;DHT22;5630;49.342;10.802;2023-03-14T04:21:59;8.30;99.90
11152;DHT22;5630;49.342;10.802;2023-03-14T04:24:24;8.30;99.90
11152;DHT22;5630;49.342;10.802;2023-03-14T04:26:50;8.30;99.90
11152;DHT22;5630;49.342;10.802;2023-03-14T04:29:15;8.30;99.90
11152;DHT22;5630;49.342;10.802;2023-03-14T04:31:41;8.20;99.90
11152;DHT22;5630;49.342;10.802;2023-03-14T04:34:06;8.20;99.90
11152;DHT22;5630;49.342;10.802;2023-03-14T04:36:32;8.20;99.90
11152;DHT22;5630;49.342;10.802;2023-03-14T04:38:58;8.20;99.90
11152;DHT22;5630;49.342;10.802;2023-03-14T04:41:23;8.10;99.90
11152;DHT22;5630;49.342;10.802;2023-03-14T04:43:49;8.20;99.90
11152;DHT22;5630;49.342;10.802;2023-03-14T04:46:14;8.10;99.90
11152;DHT22;5630;49.342;10.802;2023-03-14T04:48:40;8.10;99.90
11152;DHT22;5630;49.342;10.802;2023-03-14T04:51:06;8.10;99.90
11152;DHT22;5630;49.342;10.802;2023-03-14T04:53:32;8.10;99.90
11152;DHT22;5630;49.342;10.802;2023-03-14T04:55:57;8.10;99.90
11152;DHT22;5630;49.342;10.802;2023-03-14T04:58:23;8.00;99.90
11152;DHT22;5630;49.342;10.802;2023-03-14T05:00:49;8.00;99.90
11152;DHT22;5630;49.342;10.802;2023-03-14T05:03:16;8.00;99.90
11152;DHT22;5630;49.342;10.802;2023-03-14T05:05:42;8.00;99.90
11152;DHT22;5630;49.342;10.802;2023-03-14T05:08:07;8.00;99.90
11152;DHT22;5630;49.342;10.802;2023-03-14T05:10:33;7.90;99.90
11152;DHT22;5630;49.342;10.802;2023-03-14T05:15:25;7.90;99.90
11152;DHT22;5630;49.342;10.802;2023-03-14T05:17:51;7.90;99.90
11152;DHT22;5630;49.342;10.802;2023-03-14T05:20:17;7.90;99.90
11152;DHT22;5630;49.342;10.802;2023-03-14T05:22:42;7.90;99.90
11152;DHT22;5630;49.342;10.802;2023-03-14T05:25:08;7.90;99.90
11152;DHT22;5630;49.342;10.802;2023-03-14T05:27:34;7.90;99.90
11152;DHT22;5630;49.342;10.802;2023-03-14T05:30:05;8.00;99.90
11152;DHT22;5630;49.342;10.802;2023-03-14T05:32:31;7.90;99.90
11152;DHT22;5630;49.342;10.802;2023-03-14T05:34:56;8.00;99.90
11152;DHT22;5630;49.342;10.802;2023-03-14T05:37:25;7.90;99.90
11152;DHT22;5630;49.342;10.802;2023-03-14T05:39:51;8.00;99.90
11152;DHT22;5630;49.342;10.802;2023-03-14T05:42:16;8.00;99.90
11152;DHT22;5630;49.342;10.802;2023-03-14T05:44:42;8.00;99.90
11152;DHT22;5630;49.342;10.802;2023-03-14T05:47:07;8.00;99.90
11152;DHT22;5630;49.342;10.802;2023-03-14T05:49:33;8.00;99.90
11152;DHT22;5630;49.342;10.802;2023-03-14T05:51:58;8.00;99.90
11152;DHT22;5630;49.342;10.802;2023-03-14T05:54:24;8.00;99.90
11152;DHT22;5630;49.342;10.802;2023-03-14T05:56:49;8.00;99.90
11152;DHT22;5630;49.342;10.802;2023-03-14T05:59:15;8.00;99.90
11152;DHT22;5630;49.342;10.802;2023-03-14T06:01:40;8.00;99.90
11152;DHT22;5630;49.342;10.802;2023-03-14T06:04:06;8.00;99.90
11152;DHT22;5630;49.342;10.802;2023-03-14T06:06:32;8.00;99.90
11152;DHT22;5630;49.342;10.802;2023-03-14T06:08:57;8.00;99.90
11152;DHT22;5630;49.342;10.802;2023-03-14T06:11:23;8.00;99.90
11152;DHT22;5630;49.342;10.802;2023-03-14T06:13:48;8.00;99.90
11152;DHT22;5630;49.342;10.802;2023-03-14T06:16:14;8.00;99.90
11152;DHT22;5630;49.342;10.802;2023-03-14T06:18:40;8.00;99.90
11152;DHT22;5630;49.342;10.802;2023-03-14T06:21:05;8.70;99.90
11152;DHT22;5630;49.342;10.802;2023-03-14T06:23:31;9.20;99.90
11152;DHT22;5630;49.342;10.802;2023-03-14T06:25:57;9.50;99.90
11152;DHT22;5630;49.342;10.802;2023-03-14T06:28:23;10.30;99.90
11152;DHT22;5630;49.342;10.802;2023-03-14T06:30:51;10.70;99.90
11152;DHT22;5630;49.342;10.802;2023-03-14T06:33:21;11.00;99.90
11152;DHT22;5630;49.342;10.802;2023-03-14T06:35:49;11.20;99.90
11152;DHT22;5630;49.342;10.802;2023-03-14T06:38:15;11.10;99.90
11152;DHT22;5630;49.342;10.802;2023-03-14T06:40:41;11.20;99.90
11152;DHT22;5630;49.342;10.802;2023-03-14T06:43:06;11.30;99.90
11152;DHT22;5630;49.342;10.802;2023-03-14T06:45:32;11.20;99.90
11152;DHT22;5630;49.342;10.802;2023-03-14T06:47:57;11.30;99.90
11152;DHT22;5630;49.342;10.802;2023-03-14T06:50:23;11.20;99.90
11152;DHT22;5630;49.342;10.802;2023-03-14T06:52:48;10.60;99.90
11152;DHT22;5630;49.342;10.802;2023-03-14T06:55:15;10.30;99.90
11152;DHT22;5630;49.342;10.802;2023-03-14T06:57:41;10.00;99.90
11152;DHT22;5630;49.342;10.802;2023-03-14T07:00:07;9.60;99.90
11152;DHT22;5630;49.342;10.802;2023-03-14T07:02:33;9.50;99.90
11152;DHT22;5630;49.342;10.802;2023-03-14T07:07:27;9.30;99.90
11152;DHT22;5630;49.342;10.802;2023-03-14T07:09:52;9.20;99.90
11152;DHT22;5630;49.342;10.802;2023-03-14T07:12:18;9.10;99.90
11152;DHT22;5630;49.342;10.802;2023-03-14T07:14:43;9.10;99.90
11152;DHT22;5630;49.342;10.802;2023-03-14T07:17:09;9.10;99.90
11152;DHT22;5630;49.342;10.802;2023-03-14T07:19:34;9.10;99.90
11152;DHT22;5630;49.342;10.802;2023-03-14T07:22:00;9.00;99.90
11152;DHT22;5630;49.342;10.802;2023-03-14T07:24:26;9.00;99.90
11152;DHT22;5630;49.342;10.802;2023-03-14T07:26:52;8.90;99.90
11152;DHT22;5630;49.342;10.802;2023-03-14T07:29:17;9.00;99.90
11152;DHT22;5630;49.342;10.802;2023-03-14T07:31:43;8.90;99.90
11152;DHT22;5630;49.342;10.802;2023-03-14T07:34:09;8.90;99.90
11152;DHT22;5630;49.342;10.802;2023-03-14T07:36:35;8.90;99.90
11152;DHT22;5630;49.342;10.802;2023-03-14T07:39:00;8.90;99.90
11152;DHT22;5630;49.342;10.802;2023-03-14T07:41:26;8.90;99.90
11152;DHT22;5630;49.342;10.802;2023-03-14T07:43:51;8.90;99.90
11152;DHT22;5630;49.342;10.802;2023-03-14T07:46:17;9.00;99.90
11152;DHT22;5630;49.342;10.802;2023-03-14T07:48:43;9.00;99.90
11152;DHT22;5630;49.342;10.802;2023-03-14T07:51:08;9.00;99.90
11152;DHT22;5630;49.342;10.802;2023-03-14T07:53:34;9.30;99.90
11152;DHT22;5630;49.342;10.802;2023-03-14T07:56:00;9.60;99.90
11152;DHT22;5630;49.342;10.802;2023-03-14T07:58:25;9.80;99.90
11152;DHT22;5630;49.342;10.802;2023-03-14T08:00:52;9.80;99.90
11152;DHT22;5630;49.342;10.802;2023-03-14T08:03:18;9.90;99.90
11152;DHT22;5630;49.342;10.802;2023-03-14T08:05:44;9.80;99.90
11152;DHT22;5630;49.342;10.802;2023-03-14T08:08:12;9.80;99.90
11152;DHT22;5630;49.342;10.802;2023-03-14T08:10:37;9.80;99.90
11152;DHT22;5630;49.342;10.802;2023-03-14T08:13:03;9.80;99.90
11152;DHT22;5630;49.342;10.802;2023-03-14T08:15:29;10.00;99.90
11152;DHT22;5630;49.342;10.802;2023-03-14T08:17:55;10.00;99.90
11152;DHT22;5630;49.342;10.802;2023-03-14T08:20:24;10.10;99.90
11152;DHT22;5630;49.342;10.802;2023-03-14T08:22:51;10.20;99.90
11152;DHT22;5630;49.342;10.802;2023-03-14T08:25:17;10.20;99.90
11152;DHT22;5630;49.342;10.802;2023-03-14T08:27:43;10.30;99.90
11152;DHT22;5630;49.342;10.802;2023-03-14T08:30:14;10.40;99.90
11152;DHT22;5630;49.342;10.802;2023-03-14T08:32:40;10.40;99.90
11152;DHT22;5630;49.342;10.802;2023-03-14T08:35:07;10.50;99.90
11152;DHT22;5630;49.342;10.802;2023-03-14T08:37:33;10.60;99.90
11152;DHT22;5630;49.342;10.802;2023-03-14T08:40:00;10.60;99.90
11152;DHT22;5630;49.342;10.802;2023-03-14T08:42:25;10.60;99.90
11152;DHT22;5630;49.342;10.802;2023-03-14T08:44:52;10.60;99.90
11152;DHT22;5630;49.342;10.802;2023-03-14T08:47:18;10.70;99.90
11152;DHT22;5630;49.342;10.802;2023-03-14T08:49:43;10.60;99.90
11152;DHT22;5630;49.342;10.802;2023-03-14T08:52:09;10.60;99.90
11152;DHT22;5630;49.342;10.802;2023-03-14T08:54:35;10.70;99.90
11152;DHT22;5630;49.342;10.802;2023-03-14T08:57:00;10.70;99.90
11152;DHT22;5630;49.342;10.802;2023-03-14T08:59:26;10.70;99.90
11152;DHT22;5630;49.342;10.802;2023-03-14T09:01:51;10.70;99.90
11152;DHT22;5630;49.342;10.802;2023-03-14T09:04:17;10.70;99.90
11152;DHT22;5630;49.342;10.802;2023-03-14T09:06:43;10.60;99.90
11152;DHT22;5630;49.342;10.802;2023-03-14T09:09:08;10.70;99.90
11152;DHT22;5630;49.342;10.802;2023-03-14T09:11:34;10.70;99.90
11152;DHT22;5630;49.342;10.802;2023-03-14T09:14:00;10.80;99.90
11152;DHT22;5630;49.342;10.802;2023-03-14T09:16:25;10.80;99.90
11152;DHT22;5630;49.342;10.802;2023-03-14T09:18:51;11.00;99.90
11152;DHT22;5630;49.342;10.802;2023-03-14T09:21:20;11.10;99.90
11152;DHT22;5630;49.342;10.802;2023-03-14T09:23:46;11.10;99.90
11152;DHT22;5630;49.342;10.802;2023-03-14T09:26:12;11.20;99.90
11152;DHT22;5630;49.342;10.802;2023-03-14T09:28:38;11.20;99.90
11152;DHT22;5630;49.342;10.802;2023-03-14T09:31:09;11.40;99.90
11152;DHT22;5630;49.342;10.802;2023-03-14T09:33:36;11.60;99.90
11152;DHT22;5630;49.342;10.802;2023-03-14T09:36:03;11.60;99.90
11152;DHT22;5630;49.342;10.802;2023-03-14T09:38:30;11.50;99.90
11152;DHT22;5630;49.342;10.802;2023-03-14T09:40:59;11.50;99.90
11152;DHT22;5630;49.342;10.802;2023-03-14T09:43:27;11.60;99.90
11152;DHT22;5630;49.342;10.802;2023-03-14T09:45:54;11.60;99.90
11152;DHT22;5630;49.342;10.802;2023-03-14T09:48:22;11.60;99.90
11152;DHT22;5630;49.342;10.802;2023-03-14T09:50:52;11.50;99.90
11152;DHT22;5630;49.342;10.802;2023-03-14T09:53:25;11.40;99.90
11152;DHT22;5630;49.342;10.802;2023-03-14T09:55:53;11.50;99.90
11152;DHT22;5630;49.342;10.802;2023-03-14T09:58:22;11.40;99.90
11152;DHT22;5630;49.342;10.802;2023-03-14T10:00:54;11.30;99.90
11152;DHT22;5630;49.342;10.802;2023-03-14T10:03:33;11.20;99.90
11152;DHT22;5630;49.342;10.802;2023-03-14T10:06:00;11.20;99.90
11152;DHT22;5630;49.342;10.802;2023-03-14T10:08:26;11.20;99.90
11152;DHT22;5630;49.342;10.802;2023-03-14T10:10:52;11.20;99.90
11152;DHT22;5630;49.342;10.802;2023-03-14T10:13:22;11.20;99.90
11152;DHT22;5630;49.342;10.802;2023-03-14T10:16:00;11.30;99.90
11152;DHT22;5630;49.342;10.802;2023-03-14T10:18:28;11.30;99.90
11152;DHT22;5630;49.342;10.802;2023-03-14T10:21:20;11.30;99.90
11152;DHT22;5630;49.342;10.802;2023-03-14T10:23:46;11.50;99.90
11152;DHT22;5630;49.342;10.802;2023-03-14T10:26:28;11.50;99.90
11152;DHT22;5630;49.342;10.802;2023-03-14T10:29:03;11.50;99.90
11152;DHT22;5630;49.342;10.802;2023-03-14T10:31:47;11.60;99.90
11152;DHT22;5630;49.342;10.802;2023-03-14T10:34:22;11.70;99.90
11152;DHT22;5630;49.342;10.802;2023-03-14T10:36:56;11.70;99.90
11152;DHT22;5630;49.342;10.802;2023-03-14T10:39:36;11.80;99.90
11152;DHT22;5630;49.342;10.802;2023-03-14T10:42:12;11.80;99.90
11152;DHT22;5630;49.342;10.802;2023-03-14T10:44:39;11.80;99.90
11152;DHT22;5630;49.342;10.802;2023-03-14T10:47:05;11.80;99.90
11152;DHT22;5630;49.342;10.802;2023-03-14T10:49:33;11.70;99.90
11152;DHT22;5630;49.342;10.802;2023-03-14T10:52:27;11.60;99.90
11152;DHT22;5630;49.342;10.802;2023-03-14T10:54:59;11.60;99.90
11152;DHT22;5630;49.342;10.802;2023-03-14T10:57:25;11.60;99.90
11152;DHT22;5630;49.342;10.802;2023-03-14T10:59:51;11.50;99.90
11152;DHT22;5630;49.342;10.802;2023-03-14T11:05:28;11.30;99.90
11152;DHT22;5630;49.342;10.802;2023-03-14T11:08:15;11.30;99.90
11152;DHT22;5630;49.342;10.802;2023-03-14T11:10:45;11.30;99.90
11152;DHT22;5630;49.342;10.802;2023-03-14T11:16:21;11.30;99.90
11152;DHT22;5630;49.342;10.802;2023-03-14T11:21:41;11.30;99.90
11152;DHT22;5630;49.342;10.802;2023-03-14T11:24:22;11.40;99.90
11152;DHT22;5630;49.342;10.802;2023-03-14T11:27:18;11.80;99.90
11152;DHT22;5630;49.342;10.802;2023-03-14T11:40:38;13.50;99.90
11152;DHT22;5630;49.342;10.802;2023-03-14T11:43:15;13.90;99.90
11152;DHT22;5630;49.342;10.802;2023-03-14T11:45:43;14.20;99.90
11152;DHT22;5630;49.342;10.802;2023-03-14T11:50:35;14.60;99.90
11152;DHT22;5630;49.342;10.802;2023-03-14T11:53:03;14.60;99.90
11152;DHT22;5630;49.342;10.802;2023-03-14T11:55:35;14.50;99.90
11152;DHT22;5630;49.342;10.802;2023-03-14T11:58:20;14.40;99.90
11152;DHT22;5630;49.342;10.802;2023-03-14T12:00:49;13.90;99.90
11152;DHT22;5630;49.342;10.802;2023-03-14T12:03:35;13.80;99.90
11152;DHT22;5630;49.342;10.802;2023-03-14T12:06:22;13.70;99.90
11152;DHT22;5630;49.342;10.802;2023-03-14T12:08:58;13.60;99.90
11152;DHT22;5630;49.342;10.802;2023-03-14T12:11:47;13.50;99.90
11152;DHT22;5630;49.342;10.802;2023-03-14T12:14:34;13.50;99.90
11152;DHT22;5630;49.342;10.802;2023-03-14T12:23:02;13.50;99.90
11152;DHT22;5630;49.342;10.802;2023-03-14T12:25:33;13.50;99.90
11152;DHT22;5630;49.342;10.802;2023-03-14T12:30:33;13.60;99.90
11152;DHT22;5630;49.342;10.802;2023-03-14T12:35:50;13.30;99.90
11152;DHT22;5630;49.342;10.802;2023-03-14T12:41:26;13.10;99.90
11152;DHT22;5630;49.342;10.802;2023-03-14T12:43:54;12.90;99.90
11152;DHT22;5630;49.342;10.802;2023-03-14T12:46:25;12.90;99.90
11152;DHT22;5630;49.342;10.802;2023-03-14T12:49:03;12.70;99.90
11152;DHT22;5630;49.342;10.802;2023-03-14T12:51:34;12.30;99.90
11152;DHT22;5630;49.342;10.802;2023-03-14T13:04:36;11.40;99.90
11152;DHT22;5630;49.342;10.802;2023-03-14T13:19:42;11.30;99.90
11152;DHT22;5630;49.342;10.802;2023-03-14T13:52:44;10.10;99.90
11152;DHT22;5630;49.342;10.802;2023-03-14T14:10:11;10.00;99.90
11152;DHT22;5630;49.342;10.802;2023-03-14T14:17:43;9.60;99.90
11152;DHT22;5630;49.342;10.802;2023-03-14T14:20:26;9.40;99.90
11152;DHT22;5630;49.342;10.802;2023-03-14T14:22:57;9.10;99.90
11152;DHT22;5630;49.342;10.802;2023-03-14T14:25:24;9.10;99.90
11152;DHT22;5630;49.342;10.802;2023-03-14T14:27:50;9.20;99.90
11152;DHT22;5630;49.342;10.802;2023-03-14T14:32:46;8.90;99.90
11152;DHT22;5630;49.342;10.802;2023-03-14T14:37:52;8.80;99.90
11152;DHT22;5630;49.342;10.802;2023-03-14T14:40:29;8.70;99.90
11152;DHT22;5630;49.342;10.802;2023-03-14T14:43:02;8.60;99.90
11152;DHT22;5630;49.342;10.802;2023-03-14T14:45:28;8.30;99.90
11152;DHT22;5630;49.342;10.802;2023-03-14T14:48:09;8.20;99.90
11152;DHT22;5630;49.342;10.802;2023-03-14T14:51:00;8.10;99.90
11152;DHT22;5630;49.342;10.802;2023-03-14T14:53:38;8.10;99.90
11152;DHT22;5630;49.342;10.802;2023-03-14T14:56:14;7.90;99.90
11152;DHT22;5630;49.342;10.802;2023-03-14T14:58:44;7.90;99.90
11152;DHT22;5630;49.342;10.802;2023-03-14T15:01:23;8.00;99.90
11152;DHT22;5630;49.342;10.802;2023-03-14T15:03:53;7.90;99.90
11152;DHT22;5630;49.342;10.802;2023-03-14T15:06:19;7.90;99.90
11152;DHT22;5630;49.342;10.802;2023-03-14T15:08:47;7.90;99.90
11152;DHT22;5630;49.342;10.802;2023-03-14T15:11:19;7.80;99.90
11152;DHT22;5630;49.342;10.802;2023-03-14T15:13:44;7.90;99.90
11152;DHT22;5630;49.342;10.802;2023-03-14T15:16:12;7.70;99.90
11152;DHT22;5630;49.342;10.802;2023-03-14T15:18:38;7.70;99.90
11152;DHT22;5630;49.342;10.802;2023-03-14T15:21:03;7.70;99.90
11152;DHT22;5630;49.342;10.802;2023-03-14T15:23:29;7.80;99.90
11152;DHT22;5630;49.342;10.802;2023-03-14T15:25:55;7.70;99.90
11152;DHT22;5630;49.342;10.802;2023-03-14T15:28:22;7.70;99.90
11152;DHT22;5630;49.342;10.802;2023-03-14T15:30:50;7.70;99.90
11152;DHT22;5630;49.342;10.802;2023-03-14T15:33:16;7.70;99.90
11152;DHT22;5630;49.342;10.802;2023-03-14T15:35:42;7.80;99.90
11152;DHT22;5630;49.342;10.802;2023-03-14T15:38:12;7.80;99.90
11152;DHT22;5630;49.342;10.802;2023-03-14T15:40:38;7.70;99.90
11152;DHT22;5630;49.342;10.802;2023-03-14T15:43:04;7.80;99.90
11152;DHT22;5630;49.342;10.802;2023-03-14T15:45:30;7.80;99.90
11152;DHT22;5630;49.342;10.802;2023-03-14T15:47:56;7.80;99.90
11152;DHT22;5630;49.342;10.802;2023-03-14T15:50:22;7.80;99.90
11152;DHT22;5630;49.342;10.802;2023-03-14T15:52:48;7.90;99.90
11152;DHT22;5630;49.342;10.802;2023-03-14T15:55:13;7.90;99.90
11152;DHT22;5630;49.342;10.802;2023-03-14T15:57:43;7.90;99.90
11152;DHT22;5630;49.342;10.802;2023-03-14T16:00:12;7.80;99.90
11152;DHT22;5630;49.342;10.802;2023-03-14T16:02:39;7.80;99.90
11152;DHT22;5630;49.342;10.802;2023-03-14T16:05:09;7.80;99.90
11152;DHT22;5630;49.342;10.802;2023-03-14T16:07:36;7.70;99.90
11152;DHT22;5630;49.342;10.802;2023-03-14T16:10:02;7.70;99.90
11152;DHT22;5630;49.342;10.802;2023-03-14T16:12:28;7.70;99.90
11152;DHT22;5630;49.342;10.802;2023-03-14T16:14:54;7.70;99.90
11152;DHT22;5630;49.342;10.802;2023-03-14T16:17:19;7.60;99.90
11152;DHT22;5630;49.342;10.802;2023-03-14T16:19:45;7.60;99.90
11152;DHT22;5630;49.342;10.802;2023-03-14T16:22:11;7.60;99.90
11152;DHT22;5630;49.342;10.802;2023-03-14T16:24:36;7.60;99.90
11152;DHT22;5630;49.342;10.802;2023-03-14T16:27:02;7.50;99.90
11152;DHT22;5630;49.342;10.802;2023-03-14T16:29:29;7.60;99.90
11152;DHT22;5630;49.342;10.802;2023-03-14T16:31:55;7.50;99.90
11152;DHT22;5630;49.342;10.802;2023-03-14T16:34:20;7.40;99.90
11152;DHT22;5630;49.342;10.802;2023-03-14T16:36:46;7.30;99.90
11152;DHT22;5630;49.342;10.802;2023-03-14T16:39:12;7.40;99.90
11152;DHT22;5630;49.342;10.802;2023-03-14T16:41:38;7.40;99.90
11152;DHT22;5630;49.342;10.802;2023-03-14T16:44:03;7.40;99.90
11152;DHT22;5630;49.342;10.802;2023-03-14T16:46:29;7.40;99.90
11152;DHT22;5630;49.342;10.802;2023-03-14T16:48:55;7.40;99.90
11152;DHT22;5630;49.342;10.802;2023-03-14T16:51:22;7.30;99.90
11152;DHT22;5630;49.342;10.802;2023-03-14T16:53:47;7.30;99.90
11152;DHT22;5630;49.342;10.802;2023-03-14T16:58:41;7.30;99.90
11152;DHT22;5630;49.342;10.802;2023-03-14T17:01:08;7.30;99.90
11152;DHT22;5630;49.342;10.802;2023-03-14T17:03:46;7.30;99.90
11152;DHT22;5630;49.342;10.802;2023-03-14T17:06:20;7.20;99.90
11152;DHT22;5630;49.342;10.802;2023-03-14T17:08:48;7.20;99.90
11152;DHT22;5630;49.342;10.802;2023-03-14T17:11:14;7.10;99.90
11152;DHT22;5630;49.342;10.802;2023-03-14T17:13:39;7.20;99.90
11152;DHT22;5630;49.342;10.802;2023-03-14T17:16:06;7.10;99.90
11152;DHT22;5630;49.342;10.802;2023-03-14T17:18:31;7.10;99.90
11152;DHT22;5630;49.342;10.802;2023-03-14T17:20:57;7.10;99.90
11152;DHT22;5630;49.342;10.802;2023-03-14T17:25:50;7.00;99.90
11152;DHT22;5630;49.342;10.802;2023-03-14T17:28:18;7.00;99.90
11152;DHT22;5630;49.342;10.802;2023-03-14T17:30:44;7.00;99.90
11152;DHT22;5630;49.342;10.802;2023-03-14T17:33:10;7.00;99.90
11152;DHT22;5630;49.342;10.802;2023-03-14T17:35:35;7.00;99.90
11152;DHT22;5630;49.342;10.802;2023-03-14T17:38:01;7.00;99.90
11152;DHT22;5630;49.342;10.802;2023-03-14T17:40:27;6.90;99.90
11152;DHT22;5630;49.342;10.802;2023-03-14T17:42:52;6.80;99.90
11152;DHT22;5630;49.342;10.802;2023-03-14T17:45:18;6.90;99.90
11152;DHT22;5630;49.342;10.802;2023-03-14T17:50:11;6.80;99.90
11152;DHT22;5630;49.342;10.802;2023-03-14T17:57:30;6.80;99.90
11152;DHT22;5630;49.342;10.802;2023-03-14T17:59:56;6.60;99.90
11152;DHT22;5630;49.342;10.802;2023-03-14T18:02:22;6.60;99.90
11152;DHT22;5630;49.342;10.802;2023-03-14T18:07:17;6.60;99.90
11152;DHT22;5630;49.342;10.802;2023-03-14T18:09:43;6.60;99.90
11152;DHT22;5630;49.342;10.802;2023-03-14T18:12:08;6.60;99.90
11152;DHT22;5630;49.342;10.802;2023-03-14T18:14:37;6.60;99.90